createdAt,value
2018-07-03T00:01:47.437Z,1.93
2018-07-03T00:04:15.896Z,1.80
2018-07-03T00:06:44.849Z,3.50
2018-07-03T00:09:13.361Z,1.70
2018-07-03T00:11:41.784Z,2.13
2018-07-03T00:14:09.881Z,2.12
2018-07-03T00:16:44.005Z,2.10
2018-07-03T00:19:12.429Z,2.00
2018-07-03T00:21:40.761Z,2.13
2018-07-03T00:24:09.401Z,2.00
2018-07-03T00:26:37.585Z,2.00
2018-07-03T00:29:05.721Z,4.50
2018-07-03T00:31:33.824Z,2.50
2018-07-03T00:34:02.302Z,3.30
2018-07-03T00:36:30.546Z,3.20
2018-07-03T00:38:58.868Z,3.17
2018-07-03T00:41:26.961Z,2.83
2018-07-03T00:43:55.517Z,4.10
2018-07-03T00:46:23.860Z,4.27
2018-07-03T00:48:53.179Z,2.85
2018-07-03T00:51:22.120Z,3.57
2018-07-03T00:53:50.745Z,3.05
2018-07-03T00:56:19.201Z,3.13
2018-07-03T00:58:48.100Z,2.87
2018-07-03T01:01:16.757Z,3.27
2018-07-03T01:03:45.188Z,3.50
2018-07-03T01:06:13.921Z,2.47
2018-07-03T01:08:42.881Z,2.97
2018-07-03T01:11:10.989Z,2.97
2018-07-03T01:13:39.433Z,3.30
2018-07-03T01:16:07.811Z,3.58
2018-07-03T01:18:36.248Z,4.40
2018-07-03T01:21:04.977Z,3.05
2018-07-03T01:23:33.648Z,3.13
2018-07-03T01:26:02.657Z,3.23
2018-07-03T01:28:31.103Z,3.57
2018-07-03T01:30:59.556Z,3.55
2018-07-03T01:33:27.697Z,3.30
2018-07-03T01:35:56.509Z,3.90
2018-07-03T01:38:24.941Z,3.90
2018-07-03T01:40:53.461Z,9.50
2018-07-03T01:43:21.620Z,3.97
2018-07-03T01:45:49.769Z,4.17
2018-07-03T01:48:18.213Z,3.90
2018-07-03T01:50:46.871Z,3.80
2018-07-03T01:53:15.725Z,3.70
2018-07-03T01:55:44.213Z,4.00
2018-07-03T01:58:12.960Z,4.43
2018-07-03T02:00:41.388Z,3.70
2018-07-03T02:03:10.364Z,4.08
2018-07-03T02:05:39.009Z,3.33
2018-07-03T02:08:07.443Z,3.90
2018-07-03T02:10:36.060Z,4.73
2018-07-03T02:13:04.781Z,4.08
2018-07-03T02:15:33.461Z,3.90
2018-07-03T02:18:02.346Z,4.13
2018-07-03T02:20:31.277Z,3.83
2018-07-03T02:22:59.729Z,3.95
2018-07-03T02:25:28.181Z,4.37
2018-07-03T02:27:57.175Z,4.87
2018-07-03T02:30:25.609Z,4.77
2018-07-03T02:32:53.980Z,5.00
2018-07-03T02:35:22.438Z,4.70
2018-07-03T02:37:50.864Z,5.03
2018-07-03T02:40:19.077Z,5.00
2018-07-03T02:42:47.517Z,5.80
2018-07-03T02:45:16.197Z,5.63
2018-07-03T02:47:44.621Z,6.20
2018-07-03T02:50:12.773Z,6.47
2018-07-03T02:52:41.265Z,5.90
2018-07-03T02:55:09.728Z,5.23
2018-07-03T02:57:37.905Z,6.10
2018-07-03T03:00:06.629Z,5.57
2018-07-03T03:02:34.965Z,5.93
2018-07-03T03:05:03.227Z,5.55
2018-07-03T03:07:31.709Z,5.93
2018-07-03T03:10:00.436Z,6.05
2018-07-03T03:12:29.405Z,5.40
2018-07-03T03:14:58.529Z,5.70
2018-07-03T03:17:26.908Z,7.13
2018-07-03T03:19:55.741Z,7.30
2018-07-03T03:22:24.622Z,5.70
2018-07-03T03:24:53.598Z,5.93
2018-07-03T03:27:22.378Z,5.77
2018-07-03T03:29:51.105Z,6.33
2018-07-03T03:32:19.756Z,6.80
2018-07-03T03:34:48.373Z,7.73
2018-07-03T03:37:16.826Z,6.60
2018-07-03T03:39:45.344Z,6.53
2018-07-03T03:42:13.780Z,5.93
2018-07-03T03:44:42.545Z,6.80
2018-07-03T03:47:11.572Z,6.55
2018-07-03T03:49:39.994Z,6.37
2018-07-03T03:52:08.282Z,7.00
2018-07-03T03:54:36.387Z,6.63
2018-07-03T03:57:04.493Z,6.90
2018-07-03T03:59:33.213Z,7.20
2018-07-03T04:02:01.297Z,6.62
2018-07-03T04:04:30.136Z,7.73
2018-07-03T04:06:58.540Z,7.47
2018-07-03T04:09:26.945Z,8.53
2018-07-03T04:11:55.241Z,8.77
2018-07-03T04:14:23.577Z,8.77
2018-07-03T04:16:52.744Z,8.87
2018-07-03T04:19:21.460Z,8.97
2018-07-03T04:21:49.888Z,9.20
2018-07-03T04:24:18.413Z,7.97
2018-07-03T04:26:46.524Z,7.43
2018-07-03T04:29:14.936Z,7.53
2018-07-03T04:31:43.251Z,9.03
2018-07-03T04:34:11.539Z,8.77
2018-07-03T04:36:40.145Z,9.13
2018-07-03T04:39:09.391Z,7.90
2018-07-03T04:41:38.129Z,8.73
2018-07-03T04:44:06.800Z,8.57
2018-07-03T04:46:35.272Z,8.67
2018-07-03T04:49:03.361Z,6.70
2018-07-03T04:51:32.097Z,8.30
2018-07-03T04:54:00.814Z,7.57
2018-07-03T04:56:29.459Z,7.17
2018-07-03T04:58:57.876Z,8.40
2018-07-03T05:01:26.812Z,8.50
2018-07-03T05:03:55.530Z,7.37
2018-07-03T05:06:24.450Z,6.13
2018-07-03T05:08:53.885Z,8.53
2018-07-03T05:11:22.385Z,6.73
2018-07-03T05:13:50.882Z,8.00
2018-07-03T05:16:19.552Z,5.33
2018-07-03T05:18:48.005Z,7.20
2018-07-03T05:21:16.589Z,7.40
2018-07-03T05:23:45.047Z,8.30
2018-07-03T05:26:13.318Z,6.67
2018-07-03T05:28:42.189Z,7.47
2018-07-03T05:31:10.283Z,6.97
2018-07-03T05:33:38.713Z,7.00
2018-07-03T05:36:07.092Z,6.90
2018-07-03T05:38:35.841Z,7.20
2018-07-03T05:41:04.505Z,6.70
2018-07-03T05:43:33.188Z,7.10
2018-07-03T05:46:01.598Z,8.77
2018-07-03T05:48:29.704Z,7.30
2018-07-03T05:50:58.536Z,7.27
2018-07-03T05:53:26.805Z,6.73
2018-07-03T05:55:55.760Z,6.75
2018-07-03T05:58:24.112Z,6.63
2018-07-03T06:00:54.026Z,7.25
2018-07-03T06:03:22.644Z,6.93
2018-07-03T06:05:51.422Z,6.77
2018-07-03T06:08:19.760Z,6.53
2018-07-03T06:10:48.093Z,5.97
2018-07-03T06:13:16.591Z,6.67
2018-07-03T06:15:45.017Z,5.00
2018-07-03T06:18:13.680Z,5.50
2018-07-03T06:20:42.808Z,5.55
2018-07-03T06:23:11.825Z,5.85
2018-07-03T06:25:40.157Z,5.40
2018-07-03T06:28:08.549Z,4.92
2018-07-03T06:30:36.981Z,5.63
2018-07-03T06:33:06.034Z,5.13
2018-07-03T06:35:34.721Z,5.47
2018-07-03T06:38:03.123Z,5.90
2018-07-03T06:40:31.465Z,4.90
2018-07-03T06:43:00.026Z,4.87
2018-07-03T06:45:28.340Z,3.77
2018-07-03T06:47:57.648Z,4.80
2018-07-03T06:50:26.180Z,3.93
2018-07-03T06:52:55.482Z,3.40
2018-07-03T06:55:24.021Z,3.83
2018-07-03T06:57:53.866Z,4.17
2018-07-03T07:00:22.693Z,4.00
2018-07-03T07:02:50.915Z,3.67
2018-07-03T07:05:19.321Z,3.58
2018-07-03T07:07:47.826Z,4.00
2018-07-03T07:10:15.955Z,4.50
2018-07-03T07:12:44.412Z,4.40
2018-07-03T07:15:12.513Z,4.70
2018-07-03T07:17:41.170Z,3.90
2018-07-03T07:20:10.141Z,4.65
2018-07-03T07:22:38.808Z,3.87
2018-07-03T07:25:07.754Z,4.03
2018-07-03T07:27:36.227Z,4.37
2018-07-03T07:30:05.481Z,3.67
2018-07-03T07:32:33.929Z,3.97
2018-07-03T07:35:02.744Z,3.62
2018-07-03T07:37:30.837Z,3.70
2018-07-03T07:39:59.855Z,4.40
2018-07-03T07:42:28.273Z,3.27
2018-07-03T07:44:57.000Z,3.10
2018-07-03T07:47:25.097Z,2.33
2018-07-03T07:49:54.262Z,2.55
2018-07-03T07:52:23.127Z,2.73
2018-07-03T07:54:51.881Z,1.92
2018-07-03T07:57:20.473Z,3.30
2018-07-03T07:59:48.969Z,2.83
2018-07-03T08:02:17.405Z,2.60
2018-07-03T08:04:45.901Z,3.90
2018-07-03T08:07:14.337Z,2.63
2018-07-03T08:09:42.697Z,3.67
2018-07-03T08:12:11.397Z,3.77
2018-07-03T08:14:40.034Z,3.97
2018-07-03T08:17:09.096Z,2.35
2018-07-03T08:19:37.832Z,3.10
2018-07-03T08:22:06.381Z,3.73
2018-07-03T08:24:35.268Z,2.23
2018-07-03T08:27:03.988Z,2.20
2018-07-03T08:29:32.109Z,2.17
2018-07-03T08:32:00.541Z,1.80
2018-07-03T08:34:29.029Z,2.80
2018-07-03T08:36:57.977Z,2.10
2018-07-03T08:39:26.329Z,2.80
2018-07-03T08:41:55.045Z,1.77
2018-07-03T08:44:23.512Z,5.17
2018-07-03T08:46:51.960Z,2.20
2018-07-03T08:49:20.400Z,1.93
2018-07-03T08:51:48.753Z,1.80
2018-07-03T08:54:17.332Z,1.80
2018-07-03T08:56:46.077Z,3.60
2018-07-03T08:59:14.165Z,4.30
2018-07-03T09:01:43.001Z,2.90
2018-07-03T09:04:11.708Z,2.13
2018-07-03T09:06:40.173Z,2.13
2018-07-03T09:09:09.481Z,1.63
2018-07-03T09:11:38.228Z,1.53
2018-07-03T09:14:07.681Z,2.00
2018-07-03T09:16:36.168Z,1.77
2018-07-03T09:19:04.548Z,3.72
2018-07-03T09:21:33.292Z,1.63
2018-07-03T09:24:01.802Z,2.50
2018-07-03T09:26:30.244Z,3.03
2018-07-03T09:28:58.660Z,5.23
2018-07-03T09:31:27.213Z,1.57
2018-07-03T09:33:55.916Z,4.13
2018-07-03T09:36:24.605Z,1.37
2018-07-03T09:38:54.571Z,3.22
2018-07-03T09:41:23.128Z,1.20
2018-07-03T09:43:51.632Z,2.40
2018-07-03T09:46:20.193Z,1.37
2018-07-03T09:48:48.303Z,1.63
2018-07-03T09:51:17.308Z,1.50
2018-07-03T09:53:45.716Z,1.30
2018-07-03T09:56:14.572Z,0.97
2018-07-03T09:58:43.200Z,1.60
2018-07-03T10:01:16.940Z,1.43
2018-07-03T10:03:45.360Z,3.80
2018-07-03T10:06:14.330Z,1.47
2018-07-03T10:08:42.933Z,1.27
2018-07-03T10:11:11.041Z,1.60
2018-07-03T10:13:39.505Z,1.47
2018-07-03T10:16:08.969Z,1.57
2018-07-03T10:18:37.068Z,1.67
2018-07-03T10:21:05.694Z,1.77
2018-07-03T10:23:34.344Z,2.13
2018-07-03T10:26:02.453Z,2.20
2018-07-03T10:28:31.217Z,1.50
2018-07-03T10:31:01.062Z,1.50
2018-07-03T10:33:29.349Z,1.00
2018-07-03T10:35:57.992Z,1.80
2018-07-03T10:38:26.662Z,1.40
2018-07-03T10:40:55.055Z,1.27
2018-07-03T10:43:23.734Z,2.03
2018-07-03T10:45:52.127Z,1.37
2018-07-03T10:48:20.241Z,2.93
2018-07-03T10:50:48.622Z,1.83
2018-07-03T10:53:17.309Z,3.00
2018-07-03T10:55:45.741Z,1.47
2018-07-03T10:58:14.500Z,1.40
2018-07-03T11:00:43.160Z,1.37
2018-07-03T11:03:11.832Z,1.40
2018-07-03T11:05:40.152Z,1.40
2018-07-03T11:08:08.404Z,1.47
2018-07-03T11:10:37.069Z,2.07
2018-07-03T11:13:05.477Z,1.70
2018-07-03T11:15:33.920Z,1.53
2018-07-03T11:18:02.681Z,1.50
2018-07-03T11:20:31.498Z,1.60
2018-07-03T11:23:00.472Z,1.97
2018-07-03T11:25:29.357Z,1.37
2018-07-03T11:27:57.800Z,2.10
2018-07-03T11:30:26.376Z,1.70
2018-07-03T11:32:54.832Z,2.80
2018-07-03T11:35:23.457Z,1.70
2018-07-03T11:37:52.136Z,1.77
2018-07-03T11:40:20.531Z,1.83
2018-07-03T11:42:48.968Z,1.20
2018-07-03T11:45:17.797Z,1.93
2018-07-03T11:47:46.689Z,1.50
2018-07-03T11:50:20.392Z,1.40
2018-07-03T11:52:49.044Z,1.60
2018-07-03T11:55:17.581Z,1.50
2018-07-03T11:57:45.681Z,1.40
2018-07-03T12:00:13.769Z,1.40
2018-07-03T12:02:42.525Z,1.50
2018-07-03T12:05:10.912Z,2.37
2018-07-03T12:07:39.633Z,1.10
2018-07-03T12:10:08.485Z,1.30
2018-07-03T12:12:36.948Z,1.20
2018-07-03T12:15:05.670Z,1.67
2018-07-03T12:17:34.645Z,1.87
2018-07-03T12:20:03.042Z,3.10
2018-07-03T12:22:31.905Z,1.83
2018-07-03T12:25:01.004Z,1.30
2018-07-03T12:27:29.162Z,6.17
2018-07-03T12:29:57.736Z,2.50
2018-07-03T12:32:25.844Z,1.43
2018-07-03T12:34:54.984Z,1.35
2018-07-03T12:37:23.897Z,1.27
2018-07-03T12:39:52.300Z,1.50
2018-07-03T12:42:20.729Z,1.90
2018-07-03T12:44:49.604Z,2.57
2018-07-03T12:47:18.281Z,2.53
2018-07-03T12:49:47.205Z,1.40
2018-07-03T12:52:15.745Z,1.77
2018-07-03T12:54:44.189Z,1.33
2018-07-03T12:57:12.662Z,1.73
2018-07-03T12:59:41.111Z,1.37
2018-07-03T13:02:09.536Z,4.60
2018-07-03T13:04:37.624Z,2.63
2018-07-03T13:07:05.777Z,1.93
2018-07-03T13:09:34.133Z,1.83
2018-07-03T13:12:03.127Z,3.20
2018-07-03T13:14:31.373Z,3.07
2018-07-03T13:17:00.027Z,1.33
2018-07-03T13:19:28.533Z,2.30
2018-07-03T13:21:56.962Z,1.40
2018-07-03T13:24:25.984Z,1.70
2018-07-03T13:26:55.064Z,1.10
2018-07-03T13:29:23.880Z,1.57
2018-07-03T13:31:51.989Z,1.47
2018-07-03T13:34:20.155Z,2.30
2018-07-03T13:36:48.488Z,1.33
2018-07-03T13:39:17.146Z,2.10
2018-07-03T13:41:45.712Z,1.60
2018-07-03T13:44:14.153Z,2.40
2018-07-03T13:46:42.937Z,2.10
2018-07-03T13:49:11.910Z,1.50
2018-07-03T13:51:40.337Z,1.20
2018-07-03T13:54:08.640Z,1.40
2018-07-03T13:56:36.733Z,1.17
2018-07-03T13:59:05.593Z,1.40
2018-07-03T14:01:33.690Z,2.93
2018-07-03T14:04:02.127Z,1.43
2018-07-03T14:06:30.852Z,1.53
2018-07-03T14:08:59.764Z,1.92
2018-07-03T14:11:28.057Z,1.40
2018-07-03T14:13:57.206Z,3.87
2018-07-03T14:16:25.952Z,1.20
2018-07-03T14:18:55.342Z,3.12
2018-07-03T14:21:24.173Z,1.33
2018-07-03T14:23:52.974Z,2.83
2018-07-03T14:26:22.066Z,3.50
2018-07-03T14:28:50.832Z,1.13
2018-07-03T14:31:19.273Z,3.07
2018-07-03T14:33:47.550Z,1.30
2018-07-03T14:36:16.441Z,3.37
2018-07-03T14:38:45.065Z,1.73
2018-07-03T14:41:13.509Z,1.50
2018-07-03T14:43:42.280Z,2.10
2018-07-03T14:46:11.166Z,2.05
2018-07-03T14:48:40.124Z,2.20
2018-07-03T14:51:08.727Z,2.83
2018-07-03T14:53:37.118Z,1.57
2018-07-03T14:56:05.913Z,1.40
2018-07-03T14:58:34.392Z,2.00
2018-07-03T15:01:03.131Z,1.82
2018-07-03T15:03:31.945Z,1.63
2018-07-03T15:06:00.881Z,1.73
2018-07-03T15:08:28.985Z,3.43
2018-07-03T15:10:57.700Z,3.50
2018-07-03T15:13:26.312Z,2.67
2018-07-03T15:15:55.477Z,2.50
2018-07-03T15:18:28.060Z,2.93
2018-07-03T15:20:59.256Z,1.48
2018-07-03T15:23:27.687Z,1.80
2018-07-03T15:25:56.477Z,1.70
2018-07-03T15:28:25.137Z,1.47
2018-07-03T15:30:53.601Z,4.87
2018-07-03T15:33:21.860Z,1.67
2018-07-03T15:35:50.409Z,3.00
2018-07-03T15:38:18.501Z,1.80
2018-07-03T15:40:46.915Z,1.83
2018-07-03T15:43:15.049Z,2.90
2018-07-03T15:45:43.234Z,1.80
2018-07-03T15:48:11.457Z,1.67
2018-07-03T15:50:39.624Z,1.57
2018-07-03T15:53:08.065Z,2.92
2018-07-03T15:55:36.574Z,1.70
2018-07-03T15:58:05.092Z,1.83
2018-07-03T16:00:33.441Z,2.47
2018-07-03T16:03:13.472Z,1.65
2018-07-03T16:05:57.696Z,2.30
2018-07-03T16:08:44.152Z,2.63
2018-07-03T16:11:12.273Z,2.50
2018-07-03T16:13:40.704Z,1.83
2018-07-03T16:16:09.086Z,1.50
2018-07-03T16:18:37.546Z,3.13
2018-07-03T16:21:06.319Z,2.08
2018-07-03T16:23:34.597Z,2.73
2018-07-03T16:26:03.446Z,2.77
2018-07-03T16:28:31.549Z,2.10
2018-07-03T16:31:00.009Z,1.50
2018-07-03T16:33:28.656Z,1.70
2018-07-03T16:35:57.796Z,2.63
2018-07-03T16:38:26.409Z,1.60
2018-07-03T16:40:56.209Z,1.65
2018-07-03T16:43:24.325Z,1.63
2018-07-03T16:45:53.117Z,3.07
2018-07-03T16:48:21.533Z,1.73
2018-07-03T16:50:49.636Z,1.53
2018-07-03T16:53:17.981Z,1.80
2018-07-03T16:55:46.088Z,1.70
2018-07-03T16:58:14.517Z,1.87
2018-07-03T17:00:43.381Z,2.17
2018-07-03T17:03:13.175Z,3.97
2018-07-03T17:05:41.660Z,1.50
2018-07-03T17:08:12.820Z,2.20
2018-07-03T17:10:40.942Z,1.50
2018-07-03T17:13:09.461Z,1.70
2018-07-03T17:15:38.430Z,1.77
2018-07-03T17:18:06.565Z,2.03
2018-07-03T17:20:35.056Z,1.73
2018-07-03T17:23:03.972Z,3.62
2018-07-03T17:25:32.364Z,1.50
2018-07-03T17:28:01.909Z,2.92
2018-07-03T17:30:30.426Z,2.03
2018-07-03T17:32:58.529Z,1.50
2018-07-03T17:35:26.632Z,2.40
2018-07-03T17:37:55.789Z,2.70
2018-07-03T17:40:35.426Z,3.60
2018-07-03T17:45:16.595Z,5.80
2018-07-03T17:47:44.708Z,2.90
2018-07-03T17:50:13.761Z,3.85
2018-07-03T17:52:42.201Z,4.93
2018-07-03T17:55:10.875Z,4.40
2018-07-03T17:57:39.548Z,3.10
2018-07-03T18:00:07.652Z,3.40
2018-07-03T18:02:36.785Z,4.10
2018-07-03T18:05:05.703Z,3.60
2018-07-03T18:07:33.948Z,3.47
2018-07-03T18:10:02.677Z,3.47
2018-07-03T18:12:31.117Z,4.50
2018-07-03T18:14:59.848Z,4.55
2018-07-03T18:17:28.253Z,4.60
2018-07-03T18:19:57.220Z,4.30
2018-07-03T18:22:25.741Z,7.10
2018-07-03T18:24:55.428Z,5.03
2018-07-03T18:27:23.861Z,4.33
2018-07-03T18:29:52.593Z,4.83
2018-07-03T18:32:20.685Z,5.10
2018-07-03T18:34:48.789Z,3.90
2018-07-03T18:37:17.363Z,12.50
2018-07-03T18:39:45.840Z,4.50
2018-07-03T18:42:15.617Z,4.63
2018-07-03T18:44:44.071Z,4.00
2018-07-03T18:47:13.021Z,5.30
2018-07-03T18:49:41.454Z,4.30
2018-07-03T18:52:09.600Z,10.10
2018-07-03T18:54:38.037Z,5.23
2018-07-03T18:57:07.005Z,4.83
2018-07-03T18:59:36.049Z,3.57
2018-07-03T19:02:04.932Z,5.67
2018-07-03T19:04:33.376Z,5.63
2018-07-03T19:07:01.936Z,4.60
2018-07-03T19:09:30.261Z,4.27
2018-07-03T19:11:59.262Z,6.40
2018-07-03T19:14:27.413Z,4.23
2018-07-03T19:16:56.253Z,4.60
2018-07-03T19:19:24.739Z,6.63
2018-07-03T19:21:53.442Z,4.57
2018-07-03T19:24:22.080Z,4.33
2018-07-03T19:26:50.824Z,5.93
2018-07-03T19:29:19.290Z,7.00
2018-07-03T19:31:47.990Z,4.00
2018-07-03T19:34:16.781Z,5.23
2018-07-03T19:36:45.616Z,5.23
2018-07-03T19:39:14.609Z,4.27
2018-07-03T19:41:43.489Z,7.30
2018-07-03T19:44:12.090Z,5.83
2018-07-03T19:46:40.780Z,6.40
2018-07-03T19:49:09.206Z,4.83
2018-07-03T19:51:38.223Z,4.93
2018-07-03T19:54:06.945Z,7.65
2018-07-03T19:56:35.609Z,5.77
2018-07-03T19:59:03.929Z,8.13
2018-07-03T20:01:32.020Z,4.90
2018-07-03T20:04:00.456Z,4.63
2018-07-03T20:06:28.894Z,5.27
2018-07-03T20:08:57.627Z,5.93
2018-07-03T20:11:26.061Z,4.23
2018-07-03T20:13:56.117Z,5.53
2018-07-03T20:16:24.880Z,7.20
2018-07-03T20:18:53.385Z,6.53
2018-07-03T20:21:21.873Z,4.93
2018-07-03T20:23:50.297Z,5.07
2018-07-03T20:26:18.992Z,4.30
2018-07-03T20:28:47.348Z,9.47
2018-07-03T20:31:15.873Z,4.30
2018-07-03T20:33:44.180Z,5.23
2018-07-03T20:36:12.913Z,6.00
2018-07-03T20:38:41.365Z,7.57
2018-07-03T20:41:10.633Z,5.33
2018-07-03T20:43:39.953Z,4.60
2018-07-03T20:46:09.460Z,6.97
2018-07-03T20:48:37.889Z,8.00
2018-07-03T20:51:06.396Z,4.92
2018-07-03T20:53:34.782Z,6.23
2018-07-03T20:56:03.284Z,5.93
2018-07-03T20:58:31.958Z,5.60
2018-07-03T21:01:01.913Z,5.87
2018-07-03T21:03:30.437Z,5.53
2018-07-03T21:05:58.852Z,9.20
2018-07-03T21:08:27.124Z,5.60
2018-07-03T21:10:56.153Z,8.40
2018-07-03T21:13:24.288Z,6.37
2018-07-03T21:15:53.033Z,5.50
2018-07-03T21:18:21.133Z,5.27
2018-07-03T21:20:49.241Z,13.03
2018-07-03T21:23:17.332Z,6.57
2018-07-03T21:25:45.709Z,5.43
2018-07-03T21:28:13.808Z,5.13
2018-07-03T21:30:41.929Z,8.40
2018-07-03T21:33:10.301Z,8.77
2018-07-03T21:35:38.796Z,6.73
2018-07-03T21:38:07.596Z,6.12
2018-07-03T21:40:35.725Z,5.63
2018-07-03T21:43:04.029Z,5.90
2018-07-03T21:45:32.169Z,6.73
2018-07-03T21:48:00.629Z,9.58
2018-07-03T21:50:28.925Z,6.63
2018-07-03T21:52:57.081Z,9.50
2018-07-03T21:55:25.209Z,7.83
2018-07-03T21:57:53.356Z,6.23
2018-07-03T22:00:36.105Z,5.90
2018-07-03T22:03:05.501Z,6.22
2018-07-03T22:05:34.214Z,8.20
2018-07-03T22:08:02.877Z,6.47
2018-07-03T22:10:31.564Z,6.70
2018-07-03T22:13:00.345Z,6.67
2018-07-03T22:15:29.361Z,8.05
2018-07-03T22:17:58.437Z,7.45
2018-07-03T22:20:26.876Z,8.00
2018-07-03T22:22:56.652Z,8.60
2018-07-03T22:25:25.257Z,6.50
2018-07-03T22:27:53.877Z,6.30
2018-07-03T22:30:22.632Z,6.17
2018-07-03T22:32:51.421Z,6.87
2018-07-03T22:35:19.533Z,8.63
2018-07-03T22:37:47.925Z,6.93
2018-07-03T22:40:16.384Z,8.70
2018-07-03T22:42:45.093Z,9.63
2018-07-03T22:45:14.056Z,7.70
2018-07-03T22:47:42.505Z,9.70
2018-07-03T22:50:10.940Z,8.23
2018-07-03T22:52:39.585Z,9.30
2018-07-03T22:55:07.984Z,6.70
2018-07-03T22:57:36.414Z,9.43
2018-07-03T23:00:04.616Z,8.20
2018-07-03T23:02:33.104Z,7.60
2018-07-03T23:05:01.747Z,7.97
2018-07-03T23:07:30.353Z,7.70
2018-07-03T23:09:58.524Z,9.63
2018-07-03T23:12:26.624Z,8.47
2018-07-03T23:14:56.765Z,12.80
2018-07-03T23:17:25.400Z,8.27
2018-07-03T23:19:53.996Z,7.20
2018-07-03T23:22:22.122Z,7.77
2018-07-03T23:24:50.208Z,8.53
2018-07-03T23:27:18.316Z,11.63
2018-07-03T23:29:46.760Z,9.90
2018-07-03T23:32:15.546Z,8.23
2018-07-03T23:34:44.037Z,9.70
2018-07-03T23:37:12.885Z,7.63
2018-07-03T23:39:41.049Z,8.87
2018-07-03T23:42:09.455Z,9.20
2018-07-03T23:44:37.541Z,9.03
2018-07-03T23:47:16.989Z,9.00
2018-07-03T23:49:56.729Z,13.47
2018-07-03T23:52:36.453Z,8.90
2018-07-03T23:55:15.788Z,11.90
2018-07-03T23:57:55.413Z,9.83
